Time;durP1;ratioP1;P1;durP2;ratioP2;P2;SDS_P1;SDS_P2;PMS_P1;PMS_P2;Temp;Humidity;BMP_temperature;BMP_pressure;BME280_temperature;BME280_humidity;BME280_pressure;Samples;Min_cycle;Max_cycle;Signal;HPM_P1;HPM_P2
2023/07/31 06:20:16;;;;;;;4.40;2.70;;;18.60;99.90;;;;;;5689255;24;20210;31
2023/07/31 06:22:43;;;;;;;4.67;2.93;;;18.60;99.90;;;;;;4699395;30;20364;-88
2023/07/31 06:25:10;;;;;;;8.40;3.67;;;18.50;99.90;;;;;;4687232;30;20249;-88
2023/07/31 06:27:44;;;;;;;4.67;2.87;;;18.40;99.90;;;;;;4687452;30;20232;-87
2023/07/31 06:30:17;;;;;;;4.97;3.17;;;18.30;99.90;;;;;;4687716;30;20588;-86
2023/07/31 06:32:47;;;;;;;5.10;3.00;;;18.20;99.90;;;;;;4687632;30;20228;-88
2023/07/31 06:35:15;;;;;;;5.30;3.17;;;18.10;99.90;;;;;;4687773;30;20227;-88
2023/07/31 06:37:44;;;;;;;5.60;3.13;;;18.10;99.90;;;;;;4672615;30;20637;-87
2023/07/31 06:40:11;;;;;;;6.93;3.07;;;18.20;99.90;;;;;;4687657;30;20197;-86
2023/07/31 06:42:38;;;;;;;7.37;2.83;;;18.20;99.90;;;;;;4672403;30;20225;-87
2023/07/31 06:45:06;;;;;;;7.00;3.20;;;18.10;99.90;;;;;;4687037;30;20311;-87
2023/07/31 06:47:33;;;;;;;6.73;3.30;;;18.20;99.90;;;;;;4688173;30;20224;-87
2023/07/31 06:50:00;;;;;;;4.73;2.93;;;18.20;99.90;;;;;;4689347;30;20594;-87
2023/07/31 06:52:27;;;;;;;4.57;3.00;;;18.20;99.90;;;;;;4687935;30;20338;-87
2023/07/31 06:55:02;;;;;;;8.43;3.20;;;18.20;99.90;;;;;;4687306;30;20235;-88
2023/07/31 06:57:30;;;;;;;4.37;2.97;;;18.40;99.90;;;;;;4687070;30;20322;-87
2023/07/31 06:59:57;;;;;;;4.93;2.97;;;18.40;99.90;;;;;;4688371;30;20515;-86
2023/07/31 07:02:24;;;;;;;9.00;3.03;;;18.50;99.90;;;;;;4672869;30;20220;-87
2023/07/31 07:04:51;;;;;;;3.90;2.70;;;18.50;99.90;;;;;;4687939;30;20196;-87
2023/07/31 07:07:19;;;;;;;7.83;3.00;;;18.50;99.90;;;;;;4701242;30;20227;-86
2023/07/31 07:09:52;;;;;;;6.17;2.83;;;18.40;99.90;;;;;;4687879;30;20217;-87
2023/07/31 07:12:19;;;;;;;5.37;2.77;;;18.50;99.90;;;;;;4687487;30;20316;-86
2023/07/31 07:14:49;;;;;;;4.80;2.80;;;18.60;99.90;;;;;;4700589;30;20683;-86
2023/07/31 07:17:20;;;;;;;4.90;2.90;;;18.60;99.90;;;;;;4672669;30;20221;-87
2023/07/31 07:19:48;;;;;;;3.93;2.80;;;18.60;99.90;;;;;;4671966;30;20278;-86
2023/07/31 07:22:15;;;;;;;5.33;3.10;;;18.90;99.90;;;;;;4671835;30;20236;-86
2023/07/31 07:24:47;;;;;;;3.80;2.77;;;18.80;99.90;;;;;;4687258;30;20196;-87
2023/07/31 07:27:17;;;;;;;6.93;2.90;;;18.80;99.90;;;;;;4685736;30;20228;-87
2023/07/31 07:29:51;;;;;;;4.70;2.90;;;19.10;99.90;;;;;;4686128;30;20208;-87
2023/07/31 07:32:24;;;;;;;6.50;2.80;;;19.30;99.90;;;;;;4700322;30;20320;-87
2023/07/31 07:34:54;;;;;;;5.10;2.90;;;19.40;99.90;;;;;;4688790;30;20213;-89
2023/07/31 07:37:22;;;;;;;4.73;3.10;;;19.40;99.90;;;;;;4687845;30;20246;-86
2023/07/31 07:40:06;;;;;;;10.30;3.50;;;19.10;99.90;;;;;;4688478;30;20200;-86
2023/07/31 07:42:33;;;;;;;5.20;3.00;;;19.30;99.90;;;;;;4685460;30;20228;-86
2023/07/31 07:45:04;;;;;;;4.23;2.60;;;19.50;99.90;;;;;;4671983;30;20575;-85
2023/07/31 07:47:40;;;;;;;5.37;2.57;;;19.90;99.90;;;;;;4687182;30;20632;-86
2023/07/31 07:50:16;;;;;;;5.47;3.00;;;20.30;99.90;;;;;;4688031;30;20271;-86
2023/07/31 07:52:51;;;;;;;5.00;3.00;;;20.80;99.90;;;;;;4687159;30;20358;-87
2023/07/31 07:55:24;;;;;;;4.77;2.80;;;20.60;99.90;;;;;;4687096;30;20221;-86
2023/07/31 07:57:53;;;;;;;5.50;3.00;;;20.80;99.90;;;;;;4687111;30;20252;-87
2023/07/31 08:00:27;;;;;;;5.00;3.03;;;20.80;99.90;;;;;;4699587;30;20214;-87
2023/07/31 08:02:58;;;;;;;5.57;3.00;;;20.60;99.90;;;;;;4699609;30;20239;-87
2023/07/31 08:05:27;;;;;;;4.90;2.70;;;20.80;99.90;;;;;;4671425;30;20212;-87
2023/07/31 08:07:59;;;;;;;6.80;2.83;;;20.90;99.90;;;;;;4685081;30;20374;-88
2023/07/31 08:10:37;;;;;;;5.37;2.70;;;21.00;99.90;;;;;;4686308;30;20200;-87
2023/07/31 08:13:25;;;;;;;4.93;2.50;;;20.80;99.90;;;;;;4697821;30;20247;-87
2023/07/31 08:16:03;;;;;;;6.63;2.90;;;20.80;99.90;;;;;;4685820;30;20275;-85
2023/07/31 08:18:37;;;;;;;5.73;2.70;;;20.90;99.90;;;;;;4686414;30;20247;-87
2023/07/31 08:21:21;;;;;;;4.63;2.67;;;21.10;99.90;;;;;;4686773;30;20233;-87
2023/07/31 08:23:57;;;;;;;5.07;2.50;;;21.50;99.90;;;;;;4690577;30;20231;-86
2023/07/31 08:26:45;;;;;;;6.47;2.50;;;22.20;99.90;;;;;;4700875;30;20205;-87
2023/07/31 08:29:18;;;;;;;7.63;2.70;;;22.30;99.90;;;;;;4686686;30;20197;-86
2023/07/31 08:31:57;;;;;;;4.53;2.40;;;23.10;99.90;;;;;;4686494;30;20224;-86
2023/07/31 08:34:34;;;;;;;4.50;2.40;;;23.50;99.90;;;;;;4687801;30;20196;-85
2023/07/31 08:37:11;;;;;;;3.08;2.33;;;24.00;99.90;;;;;;4686101;30;20231;-85
2023/07/31 08:39:48;;;;;;;7.28;2.65;;;24.50;99.90;;;;;;4684940;30;20258;-86
2023/07/31 08:42:18;;;;;;;4.75;2.30;;;25.00;99.90;;;;;;4684621;30;20231;-87
2023/07/31 08:44:56;;;;;;;7.03;2.40;;;25.20;99.90;;;;;;4685940;30;20216;-86
2023/07/31 08:47:36;;;;;;;6.63;2.45;;;25.50;99.90;;;;;;4684482;30;20232;-87
2023/07/31 08:53:11;;;;;;;3.42;2.20;;;25.70;99.90;;;;;;4669484;30;20244;-86
2023/07/31 08:56:06;;;;;;;5.45;2.83;;;25.80;99.90;;;;;;4657998;30;20221;-87
2023/07/31 08:58:48;;;;;;;6.80;2.67;;;26.20;99.90;;;;;;4671523;30;20240;-86
2023/07/31 09:01:24;;;;;;;4.55;2.33;;;26.20;99.90;;;;;;4685081;30;20215;-86
2023/07/31 09:04:08;;;;;;;7.07;2.80;;;25.20;99.90;;;;;;4685119;30;20208;-85
2023/07/31 09:06:53;;;;;;;6.72;2.58;;;24.70;99.90;;;;;;4670988;30;20192;-87
2023/07/31 09:10:08;;;;;;;5.90;2.25;;;24.40;99.90;;;;;;4670749;30;20691;-85
2023/07/31 09:13:08;;;;;;;5.10;2.50;;;24.60;99.90;;;;;;4635533;30;20564;-87
2023/07/31 09:16:10;;;;;;;5.20;2.40;;;25.00;99.90;;;;;;4636454;30;20233;-86
2023/07/31 09:19:05;;;;;;;6.38;2.72;;;25.30;99.90;;;;;;4637423;30;20210;-86
2023/07/31 09:21:58;;;;;;;5.90;2.70;;;25.30;99.90;;;;;;4622248;30;20260;-85
2023/07/31 09:25:05;;;;;;;4.53;2.55;;;25.40;99.90;;;;;;4636181;30;20361;-83
2023/07/31 09:28:48;;;;;;;3.42;2.38;;;25.60;99.90;;;;;;4635191;30;20375;-84
2023/07/31 09:32:00;;;;;;;5.15;2.30;;;25.30;99.90;;;;;;4572390;31;20212;-85
2023/07/31 09:34:58;;;;;;;5.43;2.10;;;25.20;99.90;;;;;;4571991;31;20238;-85
2023/07/31 09:38:06;;;;;;;4.25;2.08;;;25.40;99.90;;;;;;4583467;31;20276;-83
2023/07/31 09:44:59;;;;;;;3.72;2.03;;;26.40;99.90;;;;;;4649191;30;20229;-84
2023/07/31 09:48:08;;;;;;;;;;;;;;;;;;;;;
2023/07/31 09:50:55;;;;;;;3.53;2.10;;;26.40;99.90;;;;;;4634210;30;20222;-83
2023/07/31 09:56:50;;;;;;;5.43;2.17;;;26.50;99.90;;;;;;4648469;30;20222;-84
2023/07/31 09:59:37;;;;;;;8.43;2.30;;;26.90;99.90;;;;;;4617962;31;20604;-85
2023/07/31 10:02:13;;;;;;;4.55;2.28;;;27.30;99.90;;;;;;4617156;31;20210;-82
2023/07/31 10:05:09;;;;;;;3.30;1.85;;;27.60;99.90;;;;;;4605233;31;20296;-84
2023/07/31 10:07:53;;;;;;;4.47;2.20;;;27.50;99.90;;;;;;4625302;30;20640;-84
2023/07/31 10:10:29;;;;;;;4.45;2.10;;;27.40;99.90;;;;;;4617658;31;20215;-84
2023/07/31 10:13:27;;;;;;;5.28;2.13;;;27.00;99.90;;;;;;4617887;31;20289;-85
2023/07/31 10:16:23;;;;;;;4.47;2.50;;;26.60;99.90;;;;;;4618464;31;20246;-84
2023/07/31 10:19:15;;;;;;;;;;;;;;;;;;;;;
2023/07/31 10:22:10;;;;;;;;;;;;;;;;;;;;;
2023/07/31 10:25:18;;;;;;;4.40;2.17;;;27.10;99.90;;;;;;4631946;31;20563;-84
2023/07/31 10:28:16;;;;;;;2.20;1.83;;;27.00;99.90;;;;;;4631135;31;20366;-86
2023/07/31 10:31:16;;;;;;;5.05;2.00;;;26.50;99.90;;;;;;4633909;30;20297;-87
2023/07/31 10:34:15;;;;;;;2.25;1.70;;;26.40;99.90;;;;;;4623354;31;20214;-83
2023/07/31 10:37:34;;;;;;;3.47;2.00;;;25.90;99.90;;;;;;4609071;31;20242;-84
2023/07/31 10:40:13;;;;;;;3.13;1.75;;;26.40;99.90;;;;;;4621680;31;20226;-84
2023/07/31 10:43:27;;;;;;;2.65;1.80;;;26.90;99.90;;;;;;4634908;30;20235;-84
2023/07/31 10:46:24;;;;;;;4.35;2.00;;;27.10;99.90;;;;;;4672834;30;20212;-85
2023/07/31 10:49:31;;;;;;;3.15;1.92;;;28.10;99.90;;;;;;4686819;30;20245;-86
2023/07/31 10:52:34;;;;;;;4.90;1.92;;;28.20;98.70;;;;;;4670805;30;20619;-86
2023/07/31 10:56:12;;;;;;;3.47;1.83;;;27.40;98.20;;;;;;4684351;30;20349;-86
2023/07/31 10:59:12;;;;;;;4.68;1.70;;;26.90;99.20;;;;;;4672902;30;20243;-87
2023/07/31 11:02:35;;;;;;;2.47;1.70;;;27.20;98.50;;;;;;4634294;30;20230;-86
2023/07/31 11:05:25;;;;;;;4.60;1.85;;;28.00;98.20;;;;;;4634170;30;20302;-85
2023/07/31 11:08:54;;;;;;;3.15;1.45;;;28.30;97.70;;;;;;4633378;30;20289;-87
2023/07/31 11:11:45;;;;;;;3.45;1.52;;;28.50;96.10;;;;;;4620264;30;20611;-86
2023/07/31 11:15:11;;;;;;;3.92;1.60;;;29.20;94.60;;;;;;4635117;31;20195;-86
2023/07/31 11:18:01;;;;;;;5.47;1.63;;;29.10;94.60;;;;;;4620992;30;20326;-85
2023/07/31 11:20:48;;;;;;;2.80;1.58;;;29.10;92.70;;;;;;4633797;30;20245;-85
2023/07/31 11:23:45;;;;;;;2.28;1.60;;;28.90;93.10;;;;;;4634133;30;20639;-86
2023/07/31 11:27:05;;;;;;;3.20;1.83;;;28.30;94.00;;;;;;4634444;30;20221;-86
2023/07/31 11:29:43;;;;;;;3.92;1.52;;;28.40;92.90;;;;;;4620799;31;20210;-85
2023/07/31 11:32:37;;;;;;;3.03;1.42;;;28.60;93.10;;;;;;4634263;30;20230;-86
2023/07/31 11:41:39;;;;;;;5.10;1.88;;;27.70;94.30;;;;;;4670325;30;20208;-88
2023/07/31 11:44:06;;;;;;;2.35;1.30;;;28.00;91.70;;;;;;4669574;30;20318;-85
2023/07/31 11:47:01;;;;;;;3.58;1.50;;;27.60;91.40;;;;;;4667665;30;20340;-86
2023/07/31 11:49:37;;;;;;;2.58;1.70;;;27.90;91.50;;;;;;4653353;30;20271;-85
2023/07/31 11:52:11;;;;;;;2.45;1.60;;;27.70;92.30;;;;;;4653506;30;20237;-88
2023/07/31 11:54:39;;;;;;;3.30;1.42;;;27.60;91.20;;;;;;4667534;30;20641;-85
2023/07/31 11:57:10;;;;;;;2.60;1.60;;;27.80;91.00;;;;;;4667705;30;20233;-84
2023/07/31 11:59:47;;;;;;;2.55;1.42;;;27.00;91.40;;;;;;4668772;30;20209;-85
2023/07/31 12:02:26;;;;;;;4.72;1.77;;;26.80;91.50;;;;;;4669005;30;20252;-85
2023/07/31 12:05:02;;;;;;;3.17;1.65;;;26.10;92.00;;;;;;4667815;30;20621;-85
2023/07/31 12:11:14;;;;;;;;;;;;;;;;;;;;;
2023/07/31 12:13:49;;;;;;;5.75;1.75;;;25.70;93.30;;;;;;4687151;30;20231;-86
2023/07/31 12:16:16;;;;;;;3.15;1.60;;;25.90;93.40;;;;;;4687254;30;20558;-87
2023/07/31 12:18:52;;;;;;;3.30;1.77;;;25.70;93.10;;;;;;4671526;30;20283;-87
2023/07/31 12:21:35;;;;;;;2.58;1.63;;;25.50;92.70;;;;;;4671998;30;20640;-86
2023/07/31 12:24:14;;;;;;;3.22;1.50;;;25.00;93.00;;;;;;4671375;30;20296;-85
2023/07/31 12:26:49;;;;;;;2.72;1.60;;;24.80;94.20;;;;;;4686622;30;20711;-84
2023/07/31 12:29:21;;;;;;;2.80;1.50;;;25.20;93.90;;;;;;4686966;30;20232;-85
2023/07/31 12:31:51;;;;;;;4.05;1.90;;;25.40;93.50;;;;;;4684925;30;20236;-85
2023/07/31 12:34:22;;;;;;;2.92;1.50;;;25.20;93.40;;;;;;4687394;30;20220;-85
2023/07/31 12:36:53;;;;;;;3.67;1.90;;;25.40;94.00;;;;;;4686396;30;20232;-85
2023/07/31 12:39:27;;;;;;;2.85;1.40;;;25.50;93.70;;;;;;4686376;30;20259;-85
2023/07/31 12:41:54;;;;;;;3.92;1.55;;;25.60;93.10;;;;;;4687171;30;20220;-85
2023/07/31 12:44:21;;;;;;;4.18;1.63;;;25.60;93.30;;;;;;4686633;30;20204;-85
2023/07/31 12:46:51;;;;;;;3.53;1.65;;;25.80;93.00;;;;;;4687182;30;20229;-85
2023/07/31 12:49:24;;;;;;;2.72;1.45;;;25.50;92.80;;;;;;4685059;30;20224;-86
2023/07/31 12:51:58;;;;;;;4.93;1.60;;;25.20;92.50;;;;;;4684562;30;20232;-86
2023/07/31 12:54:25;;;;;;;3.42;1.60;;;25.10;93.20;;;;;;4684955;30;20636;-84
2023/07/31 12:56:55;;;;;;;3.85;1.70;;;25.20;92.90;;;;;;4670642;30;20243;-84
2023/07/31 12:59:27;;;;;;;3.97;1.42;;;25.10;93.00;;;;;;4686274;30;20217;-84
2023/07/31 13:02:01;;;;;;;5.90;1.63;;;25.40;93.50;;;;;;4684876;30;20640;-84
2023/07/31 13:04:38;;;;;;;2.97;1.70;;;25.70;93.10;;;;;;4698421;30;20195;-84
2023/07/31 13:07:07;;;;;;;3.35;1.40;;;25.70;92.90;;;;;;4687096;30;20315;-84
2023/07/31 13:09:50;;;;;;;4.80;1.70;;;25.60;92.40;;;;;;4686979;30;20193;-85
2023/07/31 13:12:21;;;;;;;3.58;1.60;;;25.70;92.50;;;;;;4699840;30;20230;-84
2023/07/31 13:14:48;;;;;;;3.53;1.40;;;26.10;92.70;;;;;;4685853;30;20516;-84
2023/07/31 13:17:19;;;;;;;8.38;2.67;;;26.10;91.90;;;;;;4672359;30;20246;-86
2023/07/31 13:19:55;;;;;;;4.82;2.88;;;25.60;91.90;;;;;;4686253;30;20695;-86
2023/07/31 13:22:29;;;;;;;9.32;5.40;;;25.80;92.40;;;;;;4687042;30;20310;-86
2023/07/31 13:25:01;;;;;;;8.55;5.05;;;25.90;91.80;;;;;;4700148;30;20279;-85
2023/07/31 13:27:28;;;;;;;6.90;4.65;;;25.70;92.40;;;;;;4684488;30;20331;-86
2023/07/31 13:30:07;;;;;;;8.93;4.70;;;26.20;92.20;;;;;;4684355;30;20209;-86
2023/07/31 13:32:54;;;;;;;6.50;3.90;;;26.70;90.90;;;;;;4687073;30;20227;-86
2023/07/31 13:35:21;;;;;;;8.93;4.60;;;26.80;90.60;;;;;;4685329;30;20212;-87
2023/07/31 13:37:57;;;;;;;6.97;3.90;;;27.30;90.80;;;;;;4684579;30;20232;-85
2023/07/31 13:40:24;;;;;;;7.20;3.85;;;27.40;90.00;;;;;;4684444;30;20601;-86
2023/07/31 13:42:52;;;;;;;5.53;3.20;;;27.50;90.20;;;;;;4684416;30;20625;-88
2023/07/31 13:45:30;;;;;;;6.53;2.80;;;28.20;90.20;;;;;;4670250;30;20480;-86
2023/07/31 13:47:57;;;;;;;5.85;2.58;;;28.60;89.90;;;;;;4685541;30;20382;-86
2023/07/31 13:50:25;;;;;;;4.95;2.38;;;28.90;88.40;;;;;;4684694;30;20596;-87
2023/07/31 13:52:55;;;;;;;6.30;2.85;;;28.80;85.80;;;;;;4685650;30;20609;-86
2023/07/31 13:55:23;;;;;;;5.47;2.58;;;28.40;86.70;;;;;;4687063;30;20271;-86
2023/07/31 13:57:50;;;;;;;4.15;2.47;;;28.90;87.20;;;;;;4685398;30;20221;-87
2023/07/31 14:00:17;;;;;;;6.53;2.40;;;28.90;86.00;;;;;;4684707;30;20625;-87
2023/07/31 14:02:44;;;;;;;5.38;2.22;;;28.90;86.30;;;;;;4684574;30;20522;-88
2023/07/31 14:05:12;;;;;;;3.95;1.60;;;28.90;86.00;;;;;;4701036;30;20715;-87
2023/07/31 14:07:39;;;;;;;5.30;1.90;;;28.70;86.00;;;;;;4690113;30;20274;-87
2023/07/31 14:10:18;;;;;;;3.30;1.75;;;28.40;87.60;;;;;;4690112;30;20204;-86
2023/07/31 14:12:48;;;;;;;2.97;1.70;;;27.50;87.70;;;;;;4689246;30;20623;-87
2023/07/31 14:15:15;;;;;;;3.50;1.70;;;27.10;89.50;;;;;;4688573;30;20272;-86
2023/07/31 14:17:48;;;;;;;2.53;1.85;;;26.90;90.10;;;;;;4688504;30;20232;-87
2023/07/31 14:20:19;;;;;;;2.85;1.63;;;26.70;90.30;;;;;;4687700;30;20196;-87
2023/07/31 14:22:53;;;;;;;6.88;2.00;;;26.50;90.90;;;;;;4674013;30;20274;-86
2023/07/31 14:25:27;;;;;;;2.40;1.70;;;26.50;91.20;;;;;;4701152;30;20589;-87
2023/07/31 14:27:58;;;;;;;5.25;2.00;;;26.60;91.30;;;;;;4687394;30;20655;-86
2023/07/31 14:30:40;;;;;;;2.67;1.70;;;26.30;91.20;;;;;;4688243;30;20222;-86
2023/07/31 14:33:11;;;;;;;5.32;1.77;;;26.00;91.10;;;;;;4702680;30;20221;-86
2023/07/31 14:35:38;;;;;;;4.55;1.70;;;25.60;91.80;;;;;;4687660;30;20204;-87
2023/07/31 14:38:05;;;;;;;5.53;1.73;;;25.40;92.60;;;;;;4687249;30;20243;-87
2023/07/31 14:40:32;;;;;;;3.47;1.73;;;25.40;92.50;;;;;;4688605;30;20227;-86
2023/07/31 14:42:59;;;;;;;5.30;1.73;;;25.50;91.80;;;;;;4687984;30;20228;-87
2023/07/31 14:45:26;;;;;;;4.18;1.70;;;25.50;91.80;;;;;;4688286;30;20612;-86
2023/07/31 14:47:53;;;;;;;4.55;1.55;;;25.40;91.60;;;;;;4702098;30;20290;-86
2023/07/31 14:50:23;;;;;;;3.80;1.60;;;25.80;91.50;;;;;;4703249;30;20240;-86
2023/07/31 14:52:50;;;;;;;3.35;1.58;;;26.00;90.90;;;;;;4702910;30;20221;-86
2023/07/31 14:55:18;;;;;;;3.45;1.60;;;26.00;90.50;;;;;;4688143;30;20311;-86
2023/07/31 14:57:45;;;;;;;4.28;1.60;;;25.80;90.90;;;;;;4688035;30;20561;-89
2023/07/31 15:00:14;;;;;;;2.63;1.50;;;25.80;90.30;;;;;;4687091;30;20211;-86
2023/07/31 15:02:42;;;;;;;3.40;1.60;;;25.60;90.60;;;;;;4687989;30;20216;-87
2023/07/31 15:05:09;;;;;;;5.10;2.00;;;25.40;90.90;;;;;;4686823;30;20244;-88
2023/07/31 15:07:41;;;;;;;2.72;1.70;;;25.40;91.60;;;;;;4651451;30;20690;-87
2023/07/31 15:10:08;;;;;;;4.95;1.70;;;25.40;91.30;;;;;;4652942;30;20232;-87
2023/07/31 15:12:37;;;;;;;5.25;1.85;;;25.20;91.50;;;;;;4653004;30;20230;-86
2023/07/31 15:15:05;;;;;;;5.20;1.60;;;25.00;92.00;;;;;;4652344;30;20343;-87
2023/07/31 15:17:37;;;;;;;3.47;1.70;;;24.90;91.90;;;;;;4653340;30;20241;-87
2023/07/31 15:20:06;;;;;;;2.63;1.48;;;24.80;92.30;;;;;;4653172;30;20214;-85
2023/07/31 15:22:33;;;;;;;5.55;2.03;;;24.50;92.70;;;;;;4652087;30;20234;-86
2023/07/31 15:25:00;;;;;;;2.85;1.60;;;24.60;92.90;;;;;;4659552;30;20506;-86
2023/07/31 15:27:27;;;;;;;2.50;1.60;;;24.90;92.80;;;;;;4688776;30;20271;-85
2023/07/31 15:29:54;;;;;;;4.63;1.77;;;25.60;92.10;;;;;;4688934;30;20223;-86
2023/07/31 15:32:23;;;;;;;2.97;1.60;;;26.20;91.70;;;;;;4702391;30;20296;-86
2023/07/31 15:34:50;;;;;;;3.72;1.70;;;26.20;91.50;;;;;;4688846;30;20245;-85
2023/07/31 15:37:17;;;;;;;4.53;1.50;;;26.10;90.60;;;;;;4701951;30;20228;-86
2023/07/31 16:28:24;;;;;;;5.50;1.73;;;24.00;95.30;;;;;;5412163;24;20218;-86
2023/07/31 17:09:57;;;;;;;4.70;1.97;;;23.30;97.90;;;;;;4911821;24;20276;-86
2023/07/31 17:12:28;;;;;;;4.80;2.15;;;23.40;98.10;;;;;;4731710;30;20231;-80
2023/07/31 17:14:55;;;;;;;4.50;2.13;;;23.50;98.40;;;;;;4733025;30;20294;-82
2023/07/31 17:17:23;;;;;;;4.97;2.35;;;23.50;98.70;;;;;;4719257;30;20285;-80
2023/07/31 17:19:50;;;;;;;5.73;2.30;;;23.50;98.70;;;;;;4718852;30;20207;-80
2023/07/31 17:22:18;;;;;;;4.63;2.20;;;23.50;99.00;;;;;;4719510;30;20592;-81
2023/07/31 17:24:45;;;;;;;4.57;2.27;;;23.40;98.90;;;;;;4733225;30;20254;-80
2023/07/31 17:27:12;;;;;;;6.33;2.47;;;23.40;99.10;;;;;;4718766;30;20288;-81
2023/07/31 17:29:39;;;;;;;8.05;2.50;;;23.30;99.10;;;;;;4704104;30;20514;-82
2023/07/31 17:32:07;;;;;;;5.15;2.92;;;23.20;99.60;;;;;;4733670;30;20646;-81
2023/07/31 17:34:34;;;;;;;7.90;2.95;;;23.10;99.70;;;;;;4719600;30;20211;-81
